KJRB/JRB METAR and TAF weather

Enter ICAO airport designator
Station Type Date Time Source
KJRB METAR 2019/08/19 01:56 UTC NOAA

KJRB 190156Z AUTO 00000KT 10SM CLR 26/20 A3001 RMK AO2 SLP160 T02560200


Station Type Date Time Source
KJRB Decoded METAR 2019/08/19 01:56 UTC NOAA

Station name not available
Aug 18, 2019 - 09:56 PM EDT / 2019.08.19 0156 UTC
Wind: Calm:0
Visibility: 10 mile(s):0
Sky conditions: clear
Temperature: 78.1 F (25.6 C)
Dew Point: 68.0 F (20.0 C)
Relative Humidity: 71%
Pressure (altimeter): 30.01 in. Hg (1016 hPa)
ob: KJRB 190156Z AUTO 00000KT 10SM CLR 26/20 A3001 RMK AO2 SLP160 T02560200
cycle: 2

Station Type Date Time Source
KJRB TAF UTC NOAA

Error!

Example: see airport list